ADDS METAR Data

Data at: 2107 UTC 22 May 2018

METAR for:KEWR (Newark Intl, NJ, US)
Text:KEWR 222051Z 06004KT 10SM -RA FEW018 BKN040 OVC080 16/12 A3005 RMK AO2 SLP174 P0002 60018 T01560122 58017
Temperature: 15.6°C ( 60°F)
Dewpoint: 12.2°C ( 54°F) [RH = 80%]
Pressure (altimeter):30.05 inches Hg (1017.7 mb) [Sea level pressure: 1017.4 mb]
Winds:from the ENE (60 degrees) at 5 MPH (4 knots; 2.1 m/s)
Visibility:10 or more sm (16+ km)
Ceiling:4000 feet AGL
Clouds: few clouds at 1800 feet AGL, broken clouds at 4000 feet AGL, overcast cloud deck at 8000 feet AGL
Weather:-RA (light rain)